createdAt,value
2017-06-02T00:02:16.700Z,13.10
2017-06-02T00:04:44.564Z,13.10
2017-06-02T00:07:12.430Z,13.20
2017-06-02T00:09:40.334Z,13.10
2017-06-02T00:12:08.205Z,13.10
2017-06-02T00:14:36.077Z,13.10
2017-06-02T00:17:04.234Z,13.00
2017-06-02T00:19:32.102Z,13.00
2017-06-02T00:21:59.989Z,13.00
2017-06-02T00:24:27.885Z,12.90
2017-06-02T00:26:55.757Z,13.00
2017-06-02T00:29:23.649Z,12.90
2017-06-02T00:31:51.640Z,12.80
2017-06-02T00:34:19.118Z,12.80
2017-06-02T00:36:46.990Z,12.60
2017-06-02T00:39:15.062Z,12.70
2017-06-02T00:41:42.928Z,12.80
2017-06-02T00:44:10.793Z,12.70
2017-06-02T00:46:38.714Z,12.70
2017-06-02T00:49:06.190Z,12.70
2017-06-02T00:51:34.080Z,12.60
2017-06-02T00:54:02.082Z,12.60
2017-06-02T00:56:29.558Z,12.60
2017-06-02T00:58:57.440Z,12.50
2017-06-02T01:01:24.953Z,12.60
2017-06-02T01:03:52.816Z,12.50
2017-06-02T01:06:20.285Z,12.50
2017-06-02T01:08:48.198Z,12.40
2017-06-02T01:11:16.081Z,12.40
2017-06-02T01:13:43.949Z,12.50
2017-06-02T01:16:11.832Z,12.40
2017-06-02T01:18:39.697Z,12.40
2017-06-02T01:21:07.565Z,12.30
2017-06-02T01:23:35.805Z,12.30
2017-06-02T01:26:03.673Z,12.10
2017-06-02T01:28:31.552Z,12.20
2017-06-02T01:30:59.462Z,12.20
2017-06-02T01:33:27.346Z,12.20
2017-06-02T01:35:55.214Z,12.20
2017-06-02T01:38:23.106Z,12.10
2017-06-02T01:40:50.993Z,12.10
2017-06-02T01:43:18.871Z,12.10
2017-06-02T01:45:46.795Z,12.10
2017-06-02T01:48:14.674Z,12.00
2017-06-02T01:50:42.557Z,12.10
2017-06-02T01:53:10.474Z,12.00
2017-06-02T01:55:38.348Z,12.00
2017-06-02T01:58:06.222Z,11.90
2017-06-02T02:00:34.118Z,11.90
2017-06-02T02:03:02.001Z,11.80
2017-06-02T02:05:29.870Z,11.90
2017-06-02T02:07:57.765Z,11.90
2017-06-02T02:10:25.641Z,11.80
2017-06-02T02:12:53.505Z,11.80
2017-06-02T02:15:21.400Z,11.70
2017-06-02T02:17:48.873Z,11.70
2017-06-02T02:20:16.708Z,11.60
2017-06-02T02:22:44.188Z,11.70
2017-06-02T02:25:12.292Z,11.60
2017-06-02T02:27:40.132Z,11.70
2017-06-02T02:30:08.094Z,11.70
2017-06-02T02:32:35.544Z,11.70
2017-06-02T02:35:03.380Z,11.60
2017-06-02T02:37:31.344Z,11.70
2017-06-02T02:39:59.194Z,11.70
2017-06-02T02:42:27.027Z,11.60
2017-06-02T02:44:54.888Z,11.60
2017-06-02T02:47:22.736Z,11.50
2017-06-02T02:49:50.587Z,11.40
2017-06-02T02:52:18.160Z,11.40
2017-06-02T02:54:46.004Z,11.30
2017-06-02T02:57:13.447Z,11.30
2017-06-02T02:59:41.493Z,10.90
2017-06-02T03:02:08.941Z,11.00
2017-06-02T03:04:36.788Z,11.10
2017-06-02T03:07:05.267Z,10.70
2017-06-02T03:09:33.108Z,10.60
2017-06-02T03:12:00.947Z,10.60
2017-06-02T03:14:28.867Z,10.60
2017-06-02T03:16:56.319Z,10.20
2017-06-02T03:19:24.168Z,10.10
2017-06-02T03:21:52.253Z,10.20
2017-06-02T03:24:20.100Z,10.20
2017-06-02T03:26:47.952Z,10.30
2017-06-02T03:29:15.515Z,10.30
2017-06-02T03:31:43.359Z,10.30
2017-06-02T03:34:11.212Z,10.20
2017-06-02T03:36:39.032Z,10.20
2017-06-02T03:39:06.879Z,10.40
2017-06-02T03:41:34.730Z,10.90
2017-06-02T03:44:02.205Z,10.90
2017-06-02T03:46:30.052Z,11.40
2017-06-02T03:48:57.896Z,11.30
2017-06-02T03:51:25.372Z,11.30
2017-06-02T03:53:53.215Z,11.30
2017-06-02T03:56:21.063Z,11.30
2017-06-02T03:58:48.545Z,11.30
2017-06-02T04:01:16.383Z,11.50
2017-06-02T04:03:43.840Z,11.50
2017-06-02T04:06:11.709Z,11.40
2017-06-02T04:08:39.551Z,11.60
2017-06-02T04:11:07.391Z,11.50
2017-06-02T04:13:35.261Z,11.60
2017-06-02T04:16:03.108Z,11.60
2017-06-02T04:18:30.959Z,11.70
2017-06-02T04:20:58.827Z,11.70
2017-06-02T04:23:26.671Z,11.70
2017-06-02T04:25:54.520Z,11.70
2017-06-02T04:28:22.399Z,11.80
2017-06-02T04:30:50.242Z,11.80
2017-06-02T04:33:18.085Z,12.00
2017-06-02T04:35:45.559Z,12.00
2017-06-02T04:38:13.404Z,12.00
2017-06-02T04:40:41.244Z,12.10
2017-06-02T04:43:09.108Z,12.20
2017-06-02T04:45:36.960Z,12.20
2017-06-02T04:48:04.799Z,12.20
2017-06-02T04:50:32.672Z,12.20
2017-06-02T04:53:00.521Z,12.40
2017-06-02T04:55:27.965Z,12.30
2017-06-02T04:57:55.424Z,12.30
2017-06-02T05:00:23.272Z,12.40
2017-06-02T05:02:51.123Z,12.50
2017-06-02T05:05:19.083Z,12.60
2017-06-02T05:07:46.928Z,12.60
2017-06-02T05:10:14.781Z,12.70
2017-06-02T05:12:42.640Z,12.70
2017-06-02T05:15:10.321Z,12.70
2017-06-02T05:17:37.752Z,12.60
2017-06-02T05:20:05.632Z,12.50
2017-06-02T05:22:33.482Z,12.50
2017-06-02T05:25:01.360Z,12.60
2017-06-02T05:27:28.920Z,12.60
2017-06-02T05:29:56.763Z,12.70
2017-06-02T05:32:24.609Z,12.90
2017-06-02T05:34:52.755Z,12.70
2017-06-02T05:37:20.588Z,12.70
2017-06-02T05:39:48.441Z,12.80
2017-06-02T05:42:16.291Z,13.00
2017-06-02T05:44:44.144Z,13.10
2017-06-02T05:47:11.993Z,13.40
2017-06-02T05:49:39.871Z,13.40
2017-06-02T05:52:07.719Z,13.40
2017-06-02T05:54:35.564Z,13.50
2017-06-02T05:57:03.627Z,13.60
2017-06-02T05:59:31.472Z,13.60
2017-06-02T06:01:59.324Z,13.60
2017-06-02T06:04:27.202Z,13.70
2017-06-02T06:06:55.040Z,13.90
2017-06-02T06:09:22.886Z,14.30
2017-06-02T06:11:50.752Z,14.20
2017-06-02T06:14:18.610Z,14.20
2017-06-02T06:16:46.457Z,14.20
2017-06-02T06:19:14.612Z,14.30
2017-06-02T06:21:42.472Z,14.60
2017-06-02T06:24:09.924Z,14.60
2017-06-02T06:26:37.799Z,14.90
2017-06-02T06:29:05.840Z,14.90
2017-06-02T06:31:33.680Z,14.90
2017-06-02T06:34:01.559Z,14.90
2017-06-02T06:36:29.399Z,14.80
2017-06-02T06:38:57.247Z,14.80
2017-06-02T06:41:25.272Z,15.00
2017-06-02T06:43:53.116Z,15.20
2017-06-02T06:46:20.560Z,15.20
2017-06-02T06:48:48.374Z,15.20
2017-06-02T06:51:16.469Z,15.60
2017-06-02T06:53:44.411Z,15.70
2017-06-02T06:56:12.316Z,15.50
2017-06-02T06:58:40.531Z,15.50
2017-06-02T07:01:08.570Z,15.50
2017-06-02T07:03:36.416Z,15.70
2017-06-02T07:06:03.859Z,15.70
2017-06-02T07:08:31.707Z,15.50
2017-06-02T07:10:59.584Z,15.80
2017-06-02T07:13:27.445Z,15.80
2017-06-02T07:15:55.300Z,15.80
2017-06-02T07:18:23.260Z,16.10
2017-06-02T07:20:51.104Z,16.30
2017-06-02T07:23:18.945Z,16.10
2017-06-02T07:25:47.063Z,15.90
2017-06-02T07:28:16.288Z,16.10
2017-06-02T07:30:44.121Z,16.30
2017-06-02T07:33:12.196Z,16.60
2017-06-02T07:35:40.050Z,16.50
2017-06-02T07:38:07.903Z,16.50
2017-06-02T07:40:35.769Z,16.50
2017-06-02T07:43:03.220Z,16.50
2017-06-02T07:45:31.067Z,16.40
2017-06-02T07:47:58.958Z,16.80
2017-06-02T07:50:26.815Z,17.10
2017-06-02T07:52:54.716Z,17.30
2017-06-02T07:55:22.835Z,17.30
2017-06-02T07:57:50.678Z,17.20
2017-06-02T08:00:18.530Z,17.50
2017-06-02T08:02:46.404Z,17.60
2017-06-02T08:05:14.258Z,17.60
2017-06-02T08:07:42.091Z,18.00
2017-06-02T08:10:09.951Z,18.30
2017-06-02T08:12:37.790Z,18.60
2017-06-02T08:15:05.628Z,18.60
2017-06-02T08:17:33.506Z,18.40
2017-06-02T08:20:01.372Z,18.60
2017-06-02T08:22:28.822Z,18.70
2017-06-02T08:24:56.726Z,18.90
2017-06-02T08:27:24.167Z,18.90
2017-06-02T08:29:52.013Z,18.80
2017-06-02T08:32:19.907Z,19.10
2017-06-02T08:34:47.763Z,18.90
2017-06-02T08:37:15.599Z,18.60
2017-06-02T08:39:43.722Z,18.60
2017-06-02T08:42:11.577Z,18.60
2017-06-02T08:44:39.042Z,18.60
2017-06-02T08:47:07.207Z,18.90
2017-06-02T08:49:35.052Z,19.30
2017-06-02T08:52:02.503Z,19.30
2017-06-02T08:54:30.315Z,19.50
2017-06-02T08:56:58.170Z,19.40
2017-06-02T08:59:25.615Z,19.40
2017-06-02T09:01:53.473Z,20.20
2017-06-02T09:04:21.324Z,20.60
2017-06-02T09:06:49.187Z,20.80
2017-06-02T09:09:17.061Z,20.80
2017-06-02T09:11:44.918Z,20.70
2017-06-02T09:14:12.786Z,20.90
2017-06-02T09:16:40.883Z,20.90
2017-06-02T09:19:08.739Z,20.60
2017-06-02T09:21:36.753Z,20.70
2017-06-02T09:24:04.813Z,20.60
2017-06-02T09:26:32.666Z,20.40
2017-06-02T09:29:00.516Z,21.10
2017-06-02T09:31:28.672Z,21.50
2017-06-02T09:33:56.541Z,21.60
2017-06-02T09:36:24.399Z,21.40
2017-06-02T09:38:52.525Z,21.00
2017-06-02T09:41:19.916Z,21.00
2017-06-02T09:43:47.757Z,21.10
2017-06-02T09:46:15.873Z,21.30
2017-06-02T09:48:43.738Z,21.20
2017-06-02T09:51:11.180Z,21.20
2017-06-02T09:53:39.135Z,21.70
2017-06-02T09:56:06.982Z,21.40
2017-06-02T09:58:34.824Z,21.20
2017-06-02T10:01:02.307Z,21.20
2017-06-02T10:03:30.149Z,21.80
2017-06-02T10:05:57.991Z,22.30
2017-06-02T10:08:26.127Z,22.40
2017-06-02T10:10:53.572Z,22.40
2017-06-02T10:13:21.422Z,22.20
2017-06-02T10:15:49.120Z,22.20
2017-06-02T10:18:16.571Z,22.10
2017-06-02T10:20:44.426Z,22.60
2017-06-02T10:23:12.581Z,22.70
2017-06-02T10:25:40.443Z,23.00
2017-06-02T10:28:07.907Z,23.00
2017-06-02T10:30:35.790Z,23.80
2017-06-02T10:33:03.641Z,23.80
2017-06-02T10:35:31.107Z,23.80
2017-06-02T10:37:59.290Z,23.60
2017-06-02T10:40:27.127Z,23.80
2017-06-02T10:42:54.973Z,24.00
2017-06-02T10:45:22.854Z,24.20
2017-06-02T10:47:50.714Z,24.40
2017-06-02T10:50:18.556Z,24.80
2017-06-02T10:52:46.530Z,25.10
2017-06-02T10:55:14.382Z,25.50
2017-06-02T10:57:42.242Z,25.60
2017-06-02T11:00:10.065Z,25.60
2017-06-02T11:02:37.903Z,25.70
2017-06-02T11:05:05.748Z,25.60
2017-06-02T11:07:33.959Z,25.90
2017-06-02T11:10:01.823Z,26.00
2017-06-02T11:12:29.280Z,26.00
2017-06-02T11:14:57.138Z,26.20
2017-06-02T11:17:24.599Z,26.20
2017-06-02T11:19:52.440Z,24.70
2017-06-02T11:22:20.553Z,24.20
2017-06-02T11:24:48.002Z,24.20
2017-06-02T11:27:15.844Z,25.10
2017-06-02T11:29:43.725Z,25.60
2017-06-02T11:32:11.573Z,25.90
2017-06-02T11:34:39.411Z,26.10
2017-06-02T11:37:07.287Z,26.10
2017-06-02T11:39:35.127Z,26.90
2017-06-02T11:42:02.971Z,26.90
2017-06-02T11:44:32.005Z,27.00
2017-06-02T11:46:59.849Z,27.50
2017-06-02T11:49:27.689Z,27.20
2017-06-02T11:51:55.565Z,27.70
2017-06-02T11:54:23.009Z,27.70
2017-06-02T11:56:50.866Z,27.10
2017-06-02T11:59:19.012Z,27.40
2017-06-02T12:01:46.471Z,27.50
2017-06-02T12:04:14.311Z,28.20
2017-06-02T12:06:42.403Z,28.40
2017-06-02T12:09:10.270Z,28.20
2017-06-02T12:11:38.135Z,27.30
2017-06-02T12:14:06.012Z,27.00
2017-06-02T12:16:33.857Z,27.10
2017-06-02T12:19:01.696Z,27.20
2017-06-02T12:21:29.570Z,27.00
2017-06-02T12:23:57.032Z,26.90
2017-06-02T12:26:24.902Z,27.80
2017-06-02T12:28:52.770Z,28.20
2017-06-02T12:31:20.609Z,28.30
2017-06-02T12:33:48.055Z,28.30
2017-06-02T12:36:15.948Z,28.80
2017-06-02T12:38:43.811Z,28.60
2017-06-02T12:41:11.670Z,28.60
2017-06-02T12:43:40.272Z,28.10
2017-06-02T12:46:07.728Z,28.10
2017-06-02T12:48:35.598Z,28.40
2017-06-02T12:51:04.320Z,28.80
2017-06-02T12:53:32.159Z,28.90
2017-06-02T12:56:00.011Z,28.80
2017-06-02T12:58:27.887Z,29.00
2017-06-02T13:00:55.736Z,28.40
2017-06-02T13:03:23.598Z,28.00
2017-06-02T13:05:51.667Z,28.10
2017-06-02T13:08:20.019Z,28.70
2017-06-02T13:10:47.866Z,29.50
2017-06-02T13:13:16.085Z,30.10
2017-06-02T13:15:43.932Z,29.70
2017-06-02T13:18:11.385Z,29.70
2017-06-02T13:20:39.471Z,29.70
2017-06-02T13:23:07.324Z,30.00
2017-06-02T13:25:35.186Z,30.00
2017-06-02T13:28:03.390Z,30.00
2017-06-02T13:30:31.254Z,30.50
2017-06-02T13:32:59.115Z,30.30
2017-06-02T13:35:27.279Z,30.60
2017-06-02T13:37:55.119Z,29.70
2017-06-02T13:40:22.979Z,30.00
2017-06-02T13:42:51.186Z,30.00
2017-06-02T13:45:18.658Z,30.00
2017-06-02T13:47:46.491Z,29.20
2017-06-02T13:50:14.683Z,29.60
2017-06-02T13:52:42.148Z,29.60
2017-06-02T13:55:09.997Z,29.80
2017-06-02T13:57:37.908Z,28.80
2017-06-02T14:00:05.751Z,29.50
2017-06-02T14:02:33.599Z,29.30
2017-06-02T14:05:01.075Z,29.30
2017-06-02T14:07:28.945Z,29.80
2017-06-02T14:09:56.392Z,29.80
2017-06-02T14:12:23.894Z,29.40
2017-06-02T14:14:51.758Z,29.80
2017-06-02T14:17:19.616Z,29.50
2017-06-02T14:19:47.819Z,29.50
2017-06-02T14:22:15.668Z,28.20
2017-06-02T14:24:43.137Z,28.20
2017-06-02T14:27:11.364Z,27.70
2017-06-02T14:29:39.206Z,27.80
2017-06-02T14:32:07.075Z,26.40
2017-06-02T14:34:34.567Z,26.40
2017-06-02T14:37:02.408Z,26.30
2017-06-02T14:39:30.268Z,26.60
2017-06-02T14:41:58.410Z,26.00
2017-06-02T14:44:25.856Z,26.00
2017-06-02T14:46:53.307Z,25.90
2017-06-02T14:49:21.169Z,25.50
2017-06-02T14:51:49.022Z,24.80
2017-06-02T14:54:16.873Z,24.80
2017-06-02T14:56:44.760Z,25.10
2017-06-02T14:59:12.625Z,25.10
2017-06-02T15:01:40.486Z,25.30
2017-06-02T15:04:08.369Z,24.90
2017-06-02T15:06:35.816Z,24.90
2017-06-02T15:09:03.660Z,24.40
2017-06-02T15:11:31.522Z,24.30
2017-06-02T15:13:59.385Z,23.90
2017-06-02T15:16:27.235Z,23.40
2017-06-02T15:18:54.731Z,23.40
2017-06-02T15:21:22.590Z,23.90
2017-06-02T15:23:50.734Z,24.00
2017-06-02T15:26:18.936Z,23.90
2017-06-02T15:28:46.389Z,23.90
2017-06-02T15:31:14.248Z,23.60
2017-06-02T15:33:42.120Z,23.80
2017-06-02T15:36:09.589Z,23.80
2017-06-02T15:38:37.451Z,24.00
2017-06-02T15:41:05.422Z,23.90
2017-06-02T15:43:33.286Z,24.00
2017-06-02T15:46:00.750Z,23.90
2017-06-02T15:48:28.620Z,24.20
2017-06-02T15:50:56.090Z,24.20
2017-06-02T15:53:23.935Z,23.50
2017-06-02T15:55:51.797Z,23.50
2017-06-02T15:58:19.659Z,23.50
2017-06-02T16:00:47.510Z,23.60
2017-06-02T16:03:15.372Z,23.70
2017-06-02T16:05:43.219Z,23.40
2017-06-02T16:08:11.065Z,23.40
2017-06-02T16:10:39.657Z,23.50
2017-06-02T16:13:07.512Z,23.40
2017-06-02T16:15:35.357Z,23.40
2017-06-02T16:18:03.769Z,23.40
2017-06-02T16:20:31.618Z,23.30
2017-06-02T16:22:59.474Z,23.20
2017-06-02T16:25:27.463Z,23.10
2017-06-02T16:27:55.316Z,23.30
2017-06-02T16:30:23.161Z,23.40
2017-06-02T16:32:50.657Z,23.40
2017-06-02T16:35:18.105Z,23.30
2017-06-02T16:37:45.957Z,23.20
2017-06-02T16:40:14.155Z,23.20
2017-06-02T16:42:42.013Z,23.20
2017-06-02T16:45:09.864Z,23.20
2017-06-02T16:47:38.052Z,23.10
2017-06-02T16:50:05.896Z,23.10
2017-06-02T16:52:33.767Z,23.10
2017-06-02T16:55:01.673Z,22.90
2017-06-02T16:57:29.526Z,22.80
2017-06-02T16:59:57.370Z,22.70
2017-06-02T17:02:25.256Z,22.80
2017-06-02T17:04:53.119Z,22.80
2017-06-02T17:07:20.580Z,22.80
2017-06-02T17:09:48.761Z,22.90
2017-06-02T17:12:16.611Z,22.80
2017-06-02T17:14:44.453Z,22.60
2017-06-02T17:17:12.328Z,22.60
2017-06-02T17:19:40.172Z,22.70
2017-06-02T17:22:07.636Z,22.60
2017-06-02T17:24:36.063Z,22.80
2017-06-02T17:27:03.522Z,22.70
2017-06-02T17:29:31.838Z,22.40
2017-06-02T17:32:00.032Z,22.30
2017-06-02T17:34:27.822Z,22.30
2017-06-02T17:36:55.944Z,22.30
2017-06-02T17:39:23.986Z,22.40
2017-06-02T17:41:51.832Z,22.40
2017-06-02T17:44:19.721Z,22.40
2017-06-02T17:46:47.619Z,22.30
2017-06-02T17:49:15.475Z,22.30
2017-06-02T17:51:43.349Z,22.20
2017-06-02T17:54:11.226Z,22.20
2017-06-02T17:56:38.677Z,22.20
2017-06-02T17:59:06.528Z,22.00
2017-06-02T18:01:34.412Z,21.80
2017-06-02T18:04:02.258Z,21.80
2017-06-02T18:06:30.110Z,21.80
2017-06-02T18:08:58.086Z,21.80
2017-06-02T18:11:26.039Z,21.80
2017-06-02T18:13:53.493Z,21.80
2017-06-02T18:16:21.064Z,21.80
2017-06-02T18:18:48.915Z,21.70
2017-06-02T18:21:16.776Z,21.60
2017-06-02T18:23:45.211Z,21.60
2017-06-02T18:26:12.705Z,21.60
2017-06-02T18:28:40.557Z,21.60
2017-06-02T18:31:08.593Z,21.60
2017-06-02T18:33:36.648Z,21.40
2017-06-02T18:36:04.522Z,21.30
2017-06-02T18:38:32.111Z,21.30
2017-06-02T18:40:59.991Z,21.20
2017-06-02T18:43:27.867Z,21.10
2017-06-02T18:45:55.997Z,21.00
2017-06-02T18:48:23.543Z,21.00
2017-06-02T18:50:51.474Z,20.90
2017-06-02T18:53:19.579Z,20.80
2017-06-02T18:55:48.066Z,20.80
2017-06-02T18:58:16.290Z,20.60
2017-06-02T19:00:44.189Z,20.60
2017-06-02T19:03:12.522Z,20.40
2017-06-02T19:05:41.041Z,20.30
2017-06-02T19:08:10.346Z,20.40
2017-06-02T19:10:39.068Z,20.40
2017-06-02T19:13:07.819Z,20.30
2017-06-02T19:15:36.781Z,20.30
2017-06-02T19:18:05.287Z,20.30
2017-06-02T19:20:34.251Z,20.30
2017-06-02T19:23:03.583Z,20.30
2017-06-02T19:25:32.799Z,20.40
2017-06-02T19:28:01.634Z,20.50
2017-06-02T19:30:30.504Z,20.50
2017-06-02T19:32:59.461Z,20.40
2017-06-02T19:35:28.374Z,20.20
2017-06-02T19:37:58.198Z,20.00
2017-06-02T19:40:28.532Z,19.90
2017-06-02T19:42:57.481Z,19.90
2017-06-02T19:45:27.679Z,19.80
2017-06-02T19:47:57.586Z,19.70
2017-06-02T19:50:26.628Z,19.70
2017-06-02T19:52:55.896Z,19.70
2017-06-02T19:55:24.768Z,19.70
2017-06-02T19:57:55.194Z,19.50
2017-06-02T20:00:24.288Z,19.50
2017-06-02T20:02:56.236Z,19.20
2017-06-02T20:05:25.758Z,19.10
2017-06-02T20:07:55.195Z,19.00
2017-06-02T20:10:24.400Z,19.00
2017-06-02T20:12:53.262Z,18.90
2017-06-02T20:15:22.416Z,18.90
2017-06-02T20:17:52.202Z,18.80
2017-06-02T20:20:21.537Z,18.70
2017-06-02T20:22:50.386Z,18.60
2017-06-02T20:25:19.516Z,18.60
2017-06-02T20:27:47.917Z,18.60
2017-06-02T20:30:16.775Z,18.50
2017-06-02T20:32:45.971Z,18.40
2017-06-02T20:35:15.255Z,18.40
2017-06-02T20:37:44.271Z,18.30
2017-06-02T20:40:13.170Z,18.20
2017-06-02T20:42:42.732Z,18.30
2017-06-02T20:45:11.533Z,18.40
2017-06-02T20:47:55.613Z,18.20
2017-06-02T20:50:26.022Z,18.20
2017-06-02T20:52:55.793Z,18.00
2017-06-02T20:55:25.562Z,18.00
2017-06-02T20:57:54.416Z,17.90
2017-06-02T21:00:22.757Z,17.90
2017-06-02T21:02:52.164Z,17.80
2017-06-02T21:05:20.317Z,17.80
2017-06-02T21:07:50.731Z,17.70
2017-06-02T21:10:19.105Z,17.80
2017-06-02T21:12:47.286Z,17.80
2017-06-02T21:15:15.274Z,17.80
2017-06-02T21:17:43.509Z,17.60
2017-06-02T21:20:12.608Z,17.70
2017-06-02T21:22:40.984Z,17.70
2017-06-02T21:25:09.611Z,17.70
2017-06-02T21:27:37.847Z,17.60
2017-06-02T21:30:05.748Z,17.50
2017-06-02T21:32:33.673Z,17.50
2017-06-02T21:35:01.542Z,17.60
2017-06-02T21:37:29.388Z,17.50
2017-06-02T21:39:57.260Z,17.40
2017-06-02T21:42:25.751Z,17.40
2017-06-02T21:44:53.608Z,17.20
2017-06-02T21:47:21.749Z,17.20
2017-06-02T21:49:49.992Z,17.30
2017-06-02T21:52:17.446Z,17.30
2017-06-02T21:54:45.773Z,17.50
2017-06-02T21:57:13.631Z,17.30
2017-06-02T21:59:41.077Z,17.30
2017-06-02T22:02:08.949Z,17.10
2017-06-02T22:04:36.815Z,17.10
2017-06-02T22:07:05.575Z,17.30
2017-06-02T22:09:33.444Z,17.30
2017-06-02T22:12:00.895Z,17.30
2017-06-02T22:14:29.247Z,17.10
2017-06-02T22:16:57.130Z,17.20
2017-06-02T22:19:24.990Z,17.10
2017-06-02T22:21:52.857Z,16.90
2017-06-02T22:24:20.731Z,16.90
2017-06-02T22:26:48.840Z,16.90
2017-06-02T22:29:16.683Z,16.90
2017-06-02T22:31:44.855Z,16.90
2017-06-02T22:34:13.325Z,17.00
2017-06-02T22:36:41.182Z,16.90
